createdAt,value
2017-09-21T00:01:32.176Z,44.83
2017-09-21T00:03:58.843Z,47.65
2017-09-21T00:06:25.508Z,45.42
2017-09-21T00:08:52.196Z,47.10
2017-09-21T00:11:18.888Z,49.55
2017-09-21T00:13:45.548Z,45.70
2017-09-21T00:16:12.211Z,44.28
2017-09-21T00:18:38.904Z,49.65
2017-09-21T00:21:05.583Z,45.80
2017-09-21T00:23:32.287Z,43.90
2017-09-21T00:25:58.955Z,46.55
2017-09-21T00:28:25.631Z,46.35
2017-09-21T00:30:52.307Z,42.13
2017-09-21T00:33:19.069Z,43.50
2017-09-21T00:35:45.757Z,44.00
2017-09-21T00:38:12.426Z,42.42
2017-09-21T00:40:39.125Z,41.17
2017-09-21T00:43:05.791Z,40.95
2017-09-21T00:45:32.478Z,42.42
2017-09-21T00:47:59.143Z,45.03
2017-09-21T00:50:25.846Z,41.50
2017-09-21T00:52:52.508Z,44.20
2017-09-21T00:55:19.195Z,45.67
2017-09-21T00:57:45.875Z,41.95
2017-09-21T01:00:12.571Z,42.72
2017-09-21T01:02:39.247Z,37.70
2017-09-21T01:05:05.911Z,40.78
2017-09-21T01:07:32.575Z,42.72
2017-09-21T01:09:59.241Z,41.42
2017-09-21T01:12:25.948Z,38.95
2017-09-21T01:14:52.615Z,42.05
2017-09-21T01:17:19.300Z,40.88
2017-09-21T01:19:45.963Z,40.70
2017-09-21T01:22:12.655Z,41.33
2017-09-21T01:24:39.323Z,42.47
2017-09-21T01:27:06.016Z,42.92
2017-09-21T01:29:32.679Z,43.08
2017-09-21T01:31:59.347Z,40.38
2017-09-21T01:34:26.035Z,39.67
2017-09-21T01:36:52.700Z,41.55
2017-09-21T01:39:19.368Z,40.75
2017-09-21T01:41:46.047Z,42.53
2017-09-21T01:44:12.715Z,42.45
2017-09-21T01:46:39.384Z,41.10
2017-09-21T01:49:06.076Z,41.95
2017-09-21T01:51:32.746Z,40.50
2017-09-21T01:53:59.448Z,39.33
2017-09-21T01:56:26.124Z,41.35
2017-09-21T01:58:52.791Z,39.08
2017-09-21T02:01:19.447Z,42.40
2017-09-21T02:03:46.132Z,45.12
2017-09-21T02:06:12.799Z,41.47
2017-09-21T02:08:39.460Z,41.47
2017-09-21T02:11:06.148Z,41.50
2017-09-21T02:13:32.815Z,42.67
2017-09-21T02:15:59.504Z,42.05
2017-09-21T02:18:26.162Z,42.45
2017-09-21T02:20:52.851Z,41.80
2017-09-21T02:23:19.520Z,44.92
2017-09-21T02:25:46.219Z,42.15
2017-09-21T02:28:12.883Z,43.17
2017-09-21T02:30:39.597Z,44.08
2017-09-21T02:33:06.262Z,40.65
2017-09-21T02:35:32.928Z,41.90
2017-09-21T02:37:59.600Z,44.75
2017-09-21T02:40:26.292Z,46.17
2017-09-21T02:42:52.964Z,46.80
2017-09-21T02:45:19.629Z,42.03
2017-09-21T02:47:46.323Z,43.15
2017-09-21T02:50:12.988Z,43.53
2017-09-21T02:52:39.675Z,42.62
2017-09-21T02:55:06.335Z,42.58
2017-09-21T02:57:33.023Z,42.00
2017-09-21T02:59:59.683Z,45.55
2017-09-21T03:02:26.376Z,44.47
2017-09-21T03:04:53.039Z,46.10
2017-09-21T03:07:19.704Z,47.78
2017-09-21T03:09:46.367Z,46.83
2017-09-21T03:12:13.039Z,43.97
2017-09-21T03:14:39.707Z,47.30
2017-09-21T03:17:06.372Z,44.75
2017-09-21T03:19:33.060Z,45.58
2017-09-21T03:21:59.728Z,48.90
2017-09-21T03:24:26.415Z,45.28
2017-09-21T03:26:53.079Z,50.72
2017-09-21T03:29:19.779Z,49.10
2017-09-21T03:31:46.439Z,47.53
2017-09-21T03:34:13.103Z,47.03
2017-09-21T03:36:39.787Z,49.95
2017-09-21T03:39:06.451Z,47.90
2017-09-21T03:41:33.144Z,51.03
2017-09-21T03:43:59.807Z,51.08
2017-09-21T03:46:26.516Z,49.17
2017-09-21T03:48:53.199Z,50.25
2017-09-21T03:51:19.899Z,51.85
2017-09-21T03:53:46.567Z,54.75
2017-09-21T03:56:13.230Z,49.95
2017-09-21T03:58:39.895Z,52.08
2017-09-21T04:01:06.556Z,52.08
2017-09-21T04:03:33.223Z,53.67
2017-09-21T04:05:59.887Z,51.58
2017-09-21T04:08:26.554Z,52.75
2017-09-21T04:10:53.228Z,56.45
2017-09-21T04:13:19.931Z,56.15
2017-09-21T04:15:46.603Z,57.05
2017-09-21T04:18:13.276Z,56.00
2017-09-21T04:20:39.968Z,55.92
2017-09-21T04:23:06.643Z,52.80
2017-09-21T04:25:33.327Z,51.33
2017-09-21T04:28:00.011Z,54.00
2017-09-21T04:30:26.728Z,52.35
2017-09-21T04:32:53.392Z,50.78
2017-09-21T04:35:20.107Z,52.35
2017-09-21T04:37:46.775Z,48.35
2017-09-21T04:40:13.439Z,48.22
2017-09-21T04:42:40.110Z,47.62
2017-09-21T04:45:06.780Z,49.90
2017-09-21T04:47:33.467Z,47.50
2017-09-21T04:50:00.548Z,46.00
2017-09-21T04:52:27.235Z,49.13
2017-09-21T04:54:53.899Z,47.00
2017-09-21T04:57:20.587Z,45.30
2017-09-21T04:59:47.247Z,46.22
2017-09-21T05:02:13.956Z,50.53
2017-09-21T05:04:40.623Z,45.53
2017-09-21T05:07:07.287Z,46.15
2017-09-21T05:09:33.951Z,43.83
2017-09-21T05:12:00.631Z,48.47
2017-09-21T05:14:27.319Z,48.60
2017-09-21T05:16:54.008Z,46.28
2017-09-21T05:19:20.708Z,48.20
2017-09-21T05:21:47.371Z,45.20
2017-09-21T05:24:14.064Z,47.70
2017-09-21T05:26:40.722Z,45.53
2017-09-21T05:29:07.423Z,47.35
2017-09-21T05:31:34.083Z,49.70
2017-09-21T05:34:00.755Z,44.35
2017-09-21T05:36:27.423Z,45.22
2017-09-21T05:38:54.087Z,46.37
2017-09-21T05:41:20.772Z,43.45
2017-09-21T05:43:47.436Z,43.45
2017-09-21T05:46:14.124Z,47.15
2017-09-21T05:48:40.792Z,43.17
2017-09-21T05:51:07.495Z,44.30
2017-09-21T05:53:34.159Z,45.10
2017-09-21T05:56:00.828Z,43.67
2017-09-21T05:58:27.492Z,41.60
2017-09-21T06:00:54.163Z,42.85
2017-09-21T06:03:20.827Z,40.12
2017-09-21T06:05:47.497Z,41.67
2017-09-21T06:08:14.183Z,41.28
2017-09-21T06:10:40.847Z,43.75
2017-09-21T06:13:07.563Z,43.22
2017-09-21T06:15:34.231Z,39.70
2017-09-21T06:18:00.892Z,40.90
2017-09-21T06:20:27.565Z,41.70
2017-09-21T06:22:54.234Z,38.90
2017-09-21T06:25:20.899Z,40.47
2017-09-21T06:27:47.662Z,40.80
2017-09-21T06:30:14.354Z,40.53
2017-09-21T06:32:41.015Z,39.97
2017-09-21T06:35:07.708Z,38.92
2017-09-21T06:37:34.372Z,38.50
2017-09-21T06:40:01.067Z,38.25
2017-09-21T06:42:27.740Z,38.28
2017-09-21T06:44:54.443Z,38.03
2017-09-21T06:47:21.116Z,36.67
2017-09-21T06:49:47.779Z,37.20
2017-09-21T06:52:14.439Z,34.30
2017-09-21T06:54:41.103Z,36.08
2017-09-21T06:57:07.771Z,36.85
2017-09-21T06:59:34.447Z,34.72
2017-09-21T07:02:01.120Z,35.60
2017-09-21T07:04:27.784Z,32.03
2017-09-21T07:06:54.483Z,34.20
2017-09-21T07:09:21.147Z,30.70
2017-09-21T07:11:47.851Z,31.97
2017-09-21T07:14:14.511Z,31.47
2017-09-21T07:16:41.184Z,30.67
2017-09-21T07:19:07.852Z,32.50
2017-09-21T07:21:35.349Z,33.53
2017-09-21T07:24:02.016Z,34.03
2017-09-21T07:26:28.675Z,32.53
2017-09-21T07:28:55.343Z,33.73
2017-09-21T07:31:22.004Z,34.43
2017-09-21T07:33:48.696Z,33.40
2017-09-21T07:36:15.359Z,33.83
2017-09-21T07:38:42.068Z,33.10
2017-09-21T07:41:08.732Z,29.70
2017-09-21T07:43:35.390Z,31.90
2017-09-21T07:46:02.376Z,30.70
2017-09-21T07:48:29.071Z,31.50
2017-09-21T07:50:55.732Z,31.40
2017-09-21T07:53:22.412Z,29.53
2017-09-21T07:55:49.076Z,31.70
2017-09-21T07:58:15.743Z,31.40
2017-09-21T08:00:42.407Z,30.10
2017-09-21T08:03:09.075Z,30.43
2017-09-21T08:05:35.735Z,32.17
2017-09-21T08:08:02.396Z,31.47
2017-09-21T08:10:29.102Z,29.80
2017-09-21T08:12:55.759Z,31.37
2017-09-21T08:15:22.474Z,31.20
2017-09-21T08:17:49.143Z,29.10
2017-09-21T08:20:15.816Z,30.53
2017-09-21T08:22:42.484Z,29.07
2017-09-21T08:25:09.143Z,28.83
2017-09-21T08:27:35.831Z,31.17
2017-09-21T08:30:02.495Z,28.50
2017-09-21T08:32:29.184Z,28.40
2017-09-21T08:34:55.853Z,29.03
2017-09-21T08:37:22.548Z,28.80
2017-09-21T08:39:49.216Z,26.43
2017-09-21T08:42:15.928Z,27.33
2017-09-21T08:44:43.078Z,24.93
2017-09-21T08:47:09.981Z,26.63
2017-09-21T08:49:36.642Z,25.90
2017-09-21T08:52:03.304Z,27.17
2017-09-21T08:54:29.999Z,27.40
2017-09-21T08:56:56.659Z,26.90
2017-09-21T08:59:23.351Z,25.33
2017-09-21T09:01:50.024Z,25.40
2017-09-21T09:04:16.723Z,23.83
2017-09-21T09:06:43.388Z,24.00
2017-09-21T09:09:10.075Z,24.03
2017-09-21T09:11:36.734Z,23.67
2017-09-21T09:14:03.424Z,22.40
2017-09-21T09:16:30.091Z,22.40
2017-09-21T09:18:56.805Z,22.40
2017-09-21T09:21:23.467Z,21.30
2017-09-21T09:23:50.148Z,23.50
2017-09-21T09:26:16.812Z,21.57
2017-09-21T09:28:43.475Z,20.80
2017-09-21T09:31:10.160Z,20.40
2017-09-21T09:33:36.823Z,19.83
2017-09-21T09:36:03.507Z,20.97
2017-09-21T09:38:30.176Z,19.30
2017-09-21T09:40:56.864Z,21.30
2017-09-21T09:43:23.531Z,19.73
2017-09-21T09:45:50.235Z,18.63
2017-09-21T09:48:16.904Z,17.50
2017-09-21T09:50:43.567Z,17.40
2017-09-21T09:53:10.240Z,17.00
2017-09-21T09:55:36.947Z,15.67
2017-09-21T09:58:03.611Z,15.20
2017-09-21T10:00:30.276Z,17.13
2017-09-21T10:02:56.939Z,17.10
2017-09-21T10:05:23.599Z,16.80
2017-09-21T10:07:50.287Z,15.57
2017-09-21T10:10:16.951Z,16.80
2017-09-21T10:12:43.636Z,16.97
2017-09-21T10:15:10.304Z,18.30
2017-09-21T10:17:36.991Z,17.47
2017-09-21T10:20:03.655Z,17.27
2017-09-21T10:22:30.363Z,17.63
2017-09-21T10:24:57.028Z,17.77
2017-09-21T10:27:23.691Z,18.33
2017-09-21T10:29:50.351Z,17.47
2017-09-21T10:32:17.017Z,17.07
2017-09-21T10:34:43.728Z,15.50
2017-09-21T10:37:10.396Z,13.50
2017-09-21T10:39:37.078Z,13.83
2017-09-21T10:42:03.913Z,14.27
2017-09-21T10:44:30.604Z,13.87
2017-09-21T10:46:57.263Z,12.93
2017-09-21T10:49:23.951Z,13.40
2017-09-21T10:51:50.611Z,14.97
2017-09-21T10:54:17.320Z,12.77
2017-09-21T10:56:44.001Z,12.20
2017-09-21T10:59:10.667Z,11.80
2017-09-21T11:01:37.343Z,13.67
2017-09-21T11:04:04.008Z,11.77
2017-09-21T11:06:30.691Z,10.97
2017-09-21T11:08:57.351Z,12.63
2017-09-21T11:11:24.035Z,10.50
2017-09-21T11:13:50.706Z,11.10
2017-09-21T11:16:17.392Z,11.97
2017-09-21T11:18:44.144Z,10.90
2017-09-21T11:21:10.839Z,9.83
2017-09-21T11:23:37.901Z,11.20
2017-09-21T11:26:04.632Z,11.00
2017-09-21T11:28:31.294Z,11.60
2017-09-21T11:30:57.974Z,11.23
2017-09-21T11:33:24.635Z,10.97
2017-09-21T11:35:51.299Z,11.37
2017-09-21T11:38:17.982Z,11.50
2017-09-21T11:40:44.644Z,11.57
2017-09-21T11:43:11.339Z,11.37
2017-09-21T11:45:38.069Z,11.47
2017-09-21T11:48:04.780Z,9.90
2017-09-21T11:50:31.448Z,10.00
2017-09-21T11:52:58.131Z,11.00
2017-09-21T11:55:24.791Z,10.00
2017-09-21T11:57:51.443Z,8.17
2017-09-21T12:00:18.099Z,9.77
2017-09-21T12:02:44.778Z,11.30
2017-09-21T12:05:11.448Z,12.90
2017-09-21T12:07:38.115Z,10.70
2017-09-21T12:10:04.799Z,9.40
2017-09-21T12:12:31.460Z,9.57
2017-09-21T12:14:58.165Z,9.30
2017-09-21T12:17:24.818Z,8.10
2017-09-21T12:19:51.479Z,9.67
2017-09-21T12:22:18.131Z,8.53
2017-09-21T12:24:44.788Z,9.00
2017-09-21T12:27:11.443Z,5.53
2017-09-21T12:29:38.100Z,7.70
2017-09-21T12:32:04.755Z,6.70
2017-09-21T12:34:31.404Z,6.07
2017-09-21T12:36:58.060Z,6.37
2017-09-21T12:39:24.715Z,7.87
2017-09-21T12:41:51.367Z,7.80
2017-09-21T12:44:18.019Z,6.57
2017-09-21T12:46:44.720Z,8.40
2017-09-21T12:49:11.384Z,9.70
2017-09-21T12:51:38.045Z,8.80
2017-09-21T12:54:04.704Z,7.67
2017-09-21T12:56:31.355Z,7.10
2017-09-21T12:58:58.015Z,7.67
2017-09-21T13:01:24.667Z,7.23
2017-09-21T13:03:51.319Z,8.10
2017-09-21T13:06:17.984Z,8.73
2017-09-21T13:08:44.640Z,8.50
2017-09-21T13:11:11.300Z,8.90
2017-09-21T13:13:37.956Z,8.53
2017-09-21T13:16:04.616Z,9.47
2017-09-21T13:18:31.324Z,9.27
2017-09-21T13:20:57.987Z,10.27
2017-09-21T13:23:24.705Z,10.77
2017-09-21T13:25:51.367Z,9.83
2017-09-21T13:28:18.032Z,10.27
2017-09-21T13:30:44.695Z,10.00
2017-09-21T13:33:11.355Z,9.60
2017-09-21T13:35:38.031Z,9.80
2017-09-21T13:38:04.694Z,11.10
2017-09-21T13:40:31.380Z,10.50
2017-09-21T13:42:58.046Z,10.07
2017-09-21T13:45:24.736Z,9.70
2017-09-21T13:47:51.391Z,9.30
2017-09-21T13:50:18.055Z,9.03
2017-09-21T13:52:44.715Z,9.60
2017-09-21T13:55:11.367Z,9.50
2017-09-21T13:57:38.048Z,8.70
2017-09-21T14:00:04.699Z,9.13
2017-09-21T14:02:31.398Z,11.40
2017-09-21T14:04:58.080Z,10.63
2017-09-21T14:07:24.775Z,10.23
2017-09-21T14:09:51.440Z,9.23
2017-09-21T14:12:18.124Z,9.87
2017-09-21T14:14:44.798Z,10.23
2017-09-21T14:17:11.499Z,11.30
2017-09-21T14:19:38.164Z,9.32
2017-09-21T14:22:04.880Z,10.35
2017-09-21T14:24:31.552Z,8.30
2017-09-21T14:26:58.215Z,9.05
2017-09-21T14:29:24.880Z,8.85
2017-09-21T14:31:51.551Z,10.50
2017-09-21T14:34:18.211Z,8.35
2017-09-21T14:36:44.868Z,9.07
2017-09-21T14:39:11.556Z,8.80
2017-09-21T14:41:38.219Z,9.32
2017-09-21T14:44:04.911Z,9.95
2017-09-21T14:46:31.584Z,9.75
2017-09-21T14:48:58.268Z,8.40
2017-09-21T14:51:24.936Z,9.30
2017-09-21T14:53:51.632Z,10.70
2017-09-21T14:56:18.295Z,9.27
2017-09-21T14:58:45.004Z,9.80
2017-09-21T15:01:11.672Z,10.30
2017-09-21T15:03:38.339Z,7.93
2017-09-21T15:06:05.016Z,10.27
2017-09-21T15:08:31.688Z,9.10
2017-09-21T15:10:58.364Z,9.27
2017-09-21T15:13:25.032Z,8.95
2017-09-21T15:15:51.691Z,9.35
2017-09-21T15:18:18.364Z,9.85
2017-09-21T15:20:45.059Z,10.65
2017-09-21T15:23:11.736Z,10.38
2017-09-21T15:25:38.435Z,9.18
2017-09-21T15:28:05.103Z,9.95
2017-09-21T15:30:31.793Z,9.43
2017-09-21T15:32:58.470Z,9.27
2017-09-21T15:35:25.132Z,9.35
2017-09-21T15:37:51.800Z,8.80
2017-09-21T15:40:18.469Z,10.02
2017-09-21T15:42:45.144Z,10.40
2017-09-21T15:45:11.811Z,10.85
2017-09-21T15:47:38.503Z,9.20
2017-09-21T15:50:05.167Z,9.88
2017-09-21T15:52:31.879Z,9.85
2017-09-21T15:54:58.544Z,9.93
2017-09-21T15:57:25.204Z,8.43
2017-09-21T15:59:51.859Z,8.90
2017-09-21T16:02:18.520Z,8.90
2017-09-21T16:04:45.179Z,8.70
2017-09-21T16:07:11.844Z,8.73
2017-09-21T16:09:38.503Z,8.20
2017-09-21T16:12:05.170Z,8.48
2017-09-21T16:14:31.836Z,8.80
2017-09-21T16:16:58.495Z,7.82
2017-09-21T16:19:25.185Z,7.87
2017-09-21T16:21:51.848Z,8.30
2017-09-21T16:24:18.532Z,9.20
2017-09-21T16:26:45.200Z,9.13
2017-09-21T16:29:11.896Z,8.88
2017-09-21T16:31:38.560Z,8.13
2017-09-21T16:34:05.211Z,8.02
2017-09-21T16:36:31.875Z,9.00
2017-09-21T16:38:58.540Z,8.73
2017-09-21T16:41:25.206Z,9.15
2017-09-21T16:43:51.864Z,8.82
2017-09-21T16:46:18.535Z,9.05
2017-09-21T16:48:45.192Z,8.80
2017-09-21T16:51:11.859Z,9.15
2017-09-21T16:53:38.519Z,7.30
2017-09-21T16:56:05.200Z,9.10
2017-09-21T16:58:31.864Z,8.52
2017-09-21T17:00:58.547Z,8.20
2017-09-21T17:03:25.321Z,10.00
2017-09-21T17:05:52.018Z,14.40
2017-09-21T17:08:18.683Z,20.52
2017-09-21T17:10:45.367Z,21.30
2017-09-21T17:13:12.027Z,18.60
2017-09-21T17:15:38.715Z,16.80
2017-09-21T17:18:05.388Z,17.73
2017-09-21T17:20:32.103Z,16.35
2017-09-21T17:22:58.772Z,15.63
2017-09-21T17:25:25.441Z,14.05
2017-09-21T17:27:52.112Z,14.65
2017-09-21T17:30:18.784Z,12.35
2017-09-21T17:32:45.456Z,11.95
2017-09-21T17:35:12.124Z,12.80
2017-09-21T17:37:38.788Z,13.20
2017-09-21T17:40:05.488Z,12.88
2017-09-21T17:42:32.152Z,13.05
2017-09-21T17:44:58.811Z,12.95
2017-09-21T17:47:25.475Z,13.75
2017-09-21T17:49:52.143Z,14.93
2017-09-21T17:52:18.813Z,15.48
2017-09-21T17:54:45.500Z,14.80
2017-09-21T17:57:12.163Z,16.70
2017-09-21T17:59:38.859Z,16.45
2017-09-21T18:02:05.525Z,16.75
2017-09-21T18:04:32.227Z,14.95
2017-09-21T18:06:58.928Z,15.93
2017-09-21T18:09:25.616Z,15.90
2017-09-21T18:11:52.287Z,14.43
2017-09-21T18:14:18.959Z,14.27
2017-09-21T18:16:45.624Z,14.98
2017-09-21T18:19:12.295Z,15.50
2017-09-21T18:21:38.983Z,14.48
2017-09-21T18:24:05.654Z,13.68
2017-09-21T18:26:32.347Z,12.80
2017-09-21T18:28:59.015Z,13.35
2017-09-21T18:31:25.701Z,14.90
2017-09-21T18:33:52.371Z,14.82
2017-09-21T18:36:19.056Z,15.70
2017-09-21T18:38:45.728Z,16.00
2017-09-21T18:41:12.478Z,16.60
2017-09-21T18:43:39.163Z,17.48
2017-09-21T18:46:05.863Z,17.70
2017-09-21T18:48:32.543Z,16.70
2017-09-21T18:50:59.208Z,17.20
2017-09-21T18:53:25.871Z,17.15
2017-09-21T18:55:52.541Z,18.45
2017-09-21T18:58:19.239Z,20.05
2017-09-21T19:00:45.904Z,16.70
2017-09-21T19:03:12.642Z,17.85
2017-09-21T19:05:39.311Z,17.33
2017-09-21T19:08:06.003Z,19.00
2017-09-21T19:10:32.668Z,21.17
2017-09-21T19:12:59.357Z,21.87
2017-09-21T19:15:26.019Z,21.73
2017-09-21T19:17:52.731Z,25.15
2017-09-21T19:20:19.399Z,24.55
2017-09-21T19:22:46.063Z,24.05
2017-09-21T19:25:12.727Z,25.33
2017-09-21T19:27:39.387Z,23.60
2017-09-21T19:30:06.056Z,22.62
2017-09-21T19:32:32.719Z,20.73
2017-09-21T19:34:59.413Z,21.25
2017-09-21T19:37:26.087Z,22.05
2017-09-21T19:39:52.783Z,20.52
2017-09-21T19:42:19.443Z,23.65
2017-09-21T19:44:46.136Z,23.27
2017-09-21T19:47:12.799Z,23.08
2017-09-21T19:49:39.461Z,23.35
2017-09-21T19:52:06.132Z,24.20
2017-09-21T19:54:32.794Z,22.27
2017-09-21T19:56:59.455Z,24.25
2017-09-21T19:59:26.123Z,21.12
2017-09-21T20:01:52.796Z,21.20
2017-09-21T20:04:19.463Z,23.25
2017-09-21T20:06:46.132Z,21.65
2017-09-21T20:09:12.799Z,23.83
2017-09-21T20:11:39.511Z,23.02
2017-09-21T20:14:06.176Z,22.48
2017-09-21T20:16:32.864Z,22.40
2017-09-21T20:18:59.528Z,23.52
2017-09-21T20:21:26.231Z,22.27
2017-09-21T20:23:52.932Z,23.00
2017-09-21T20:26:19.599Z,22.73
2017-09-21T20:28:46.263Z,22.27
2017-09-21T20:31:12.930Z,22.33
2017-09-21T20:33:39.607Z,20.58
2017-09-21T20:36:06.287Z,21.75
2017-09-21T20:38:32.951Z,23.08
2017-09-21T20:40:59.612Z,22.17
2017-09-21T20:43:26.275Z,22.27
2017-09-21T20:45:52.946Z,22.08
2017-09-21T20:48:19.611Z,21.30
2017-09-21T20:50:46.280Z,20.70
2017-09-21T20:53:12.972Z,22.25
2017-09-21T20:55:39.636Z,23.30
2017-09-21T20:58:06.306Z,21.92
2017-09-21T21:00:32.966Z,23.85
2017-09-21T21:02:59.652Z,24.58
2017-09-21T21:05:26.328Z,23.90
2017-09-21T21:07:53.016Z,23.58
2017-09-21T21:10:19.680Z,23.92
2017-09-21T21:12:46.366Z,25.20
2017-09-21T21:15:13.027Z,25.80
2017-09-21T21:17:39.686Z,23.80
2017-09-21T21:20:06.396Z,25.17
2017-09-21T21:22:33.060Z,25.08
2017-09-21T21:24:59.723Z,23.70
2017-09-21T21:27:26.387Z,25.02
2017-09-21T21:29:53.085Z,27.05
2017-09-21T21:32:19.744Z,28.85
2017-09-21T21:34:46.412Z,28.60
2017-09-21T21:37:13.080Z,29.00
2017-09-21T21:39:39.767Z,27.77
2017-09-21T21:42:06.427Z,25.62
2017-09-21T21:44:33.120Z,27.08
2017-09-21T21:46:59.779Z,26.15
2017-09-21T21:49:26.480Z,26.70
2017-09-21T21:51:53.187Z,25.40
2017-09-21T21:54:19.851Z,24.98
2017-09-21T21:56:46.539Z,25.60
2017-09-21T21:59:13.204Z,26.30
2017-09-21T22:01:39.892Z,26.10
2017-09-21T22:04:06.551Z,27.05
2017-09-21T22:06:33.239Z,25.58
2017-09-21T22:08:59.904Z,25.90
2017-09-21T22:11:26.607Z,29.40
2017-09-21T22:13:53.274Z,31.30
2017-09-21T22:16:19.948Z,30.52
2017-09-21T22:18:46.615Z,30.55
2017-09-21T22:21:13.283Z,30.00
2017-09-21T22:23:39.979Z,30.77
2017-09-21T22:26:06.639Z,31.70
2017-09-21T22:28:33.330Z,29.58
2017-09-21T22:31:00.000Z,30.65
2017-09-21T22:33:26.692Z,28.90
2017-09-21T22:35:53.360Z,30.40
2017-09-21T22:38:20.063Z,34.03
2017-09-21T22:40:46.750Z,30.00
2017-09-21T22:43:13.411Z,33.03
2017-09-21T22:45:40.079Z,37.95
2017-09-21T22:48:06.743Z,34.30
2017-09-21T22:50:33.407Z,29.65
2017-09-21T22:53:00.067Z,29.55
2017-09-21T22:55:26.732Z,30.05
2017-09-21T22:57:53.396Z,30.10
2017-09-21T23:00:20.915Z,34.63
2017-09-21T23:02:47.579Z,36.95
2017-09-21T23:05:14.271Z,37.03
2017-09-21T23:07:40.939Z,36.92
2017-09-21T23:10:07.627Z,31.67
2017-09-21T23:12:34.295Z,33.63
2017-09-21T23:15:00.993Z,30.15
2017-09-21T23:17:27.655Z,32.60
2017-09-21T23:19:54.355Z,32.35
2017-09-21T23:22:21.023Z,33.55
2017-09-21T23:24:47.682Z,34.80
2017-09-21T23:27:14.347Z,30.88
2017-09-21T23:29:41.011Z,29.60
2017-09-21T23:32:07.671Z,33.58
2017-09-21T23:34:34.336Z,36.20
2017-09-21T23:37:00.999Z,31.35
2017-09-21T23:39:27.663Z,32.20
2017-09-21T23:41:54.355Z,30.12
2017-09-21T23:44:21.019Z,31.25
2017-09-21T23:46:47.708Z,31.48
2017-09-21T23:49:14.372Z,30.42
2017-09-21T23:51:41.087Z,32.63
2017-09-21T23:54:07.747Z,31.12
2017-09-21T23:56:34.411Z,32.13
2017-09-21T23:59:01.076Z,33.15
